sensor_id;sensor_type;location;lat;lon;timestamp;pressure;altitude;pressure_sealevel;temperature;humidity
51926;BME280;37952;51.938;15.480;2023-03-01T00:01:07;101223.34;;;0.96;57.78
51926;BME280;37952;51.938;15.480;2023-03-01T00:04:10;101221.07;;;0.93;57.82
51926;BME280;37952;51.938;15.480;2023-03-01T00:07:13;101213.60;;;0.91;57.99
51926;BME280;37952;51.938;15.480;2023-03-01T00:10:17;101217.42;;;0.90;57.95
51926;BME280;37952;51.938;15.480;2023-03-01T00:13:20;101216.89;;;0.89;57.91
51926;BME280;37952;51.938;15.480;2023-03-01T00:16:26;101218.45;;;0.84;57.78
51926;BME280;37952;51.938;15.480;2023-03-01T00:19:30;101214.96;;;0.81;57.98
51926;BME280;37952;51.938;15.480;2023-03-01T00:22:36;101214.95;;;0.78;58.15
51926;BME280;37952;51.938;15.480;2023-03-01T00:25:43;101207.48;;;0.80;58.11
51926;BME280;37952;51.938;15.480;2023-03-01T00:28:46;101203.67;;;0.78;58.11
51926;BME280;37952;51.938;15.480;2023-03-01T00:31:49;101190.61;;;0.68;58.14
51926;BME280;37952;51.938;15.480;2023-03-01T00:34:52;101201.55;;;0.67;58.26
51926;BME280;37952;51.938;15.480;2023-03-01T00:37:59;101195.98;;;0.63;58.40
51926;BME280;37952;51.938;15.480;2023-03-01T00:41:06;101198.08;;;0.65;58.59
51926;BME280;37952;51.938;15.480;2023-03-01T00:44:10;101194.94;;;0.65;58.52
51926;BME280;37952;51.938;15.480;2023-03-01T00:55:18;101189.08;;;0.70;58.54
51926;BME280;37952;51.938;15.480;2023-03-01T00:58:21;101189.89;;;0.58;58.47
51926;BME280;37952;51.938;15.480;2023-03-01T01:01:26;101190.38;;;0.51;58.63
51926;BME280;37952;51.938;15.480;2023-03-01T01:04:32;101189.68;;;0.52;58.51
51926;BME280;37952;51.938;15.480;2023-03-01T01:07:35;101185.02;;;0.54;58.68
51926;BME280;37952;51.938;15.480;2023-03-01T01:10:38;101179.48;;;0.58;58.53
51926;BME280;37952;51.938;15.480;2023-03-01T01:13:41;101171.84;;;0.57;58.42
51926;BME280;37952;51.938;15.480;2023-03-01T01:16:46;101173.05;;;0.57;58.47
51926;BME280;37952;51.938;15.480;2023-03-01T01:19:49;101167.52;;;0.60;58.30
51926;BME280;37952;51.938;15.480;2023-03-01T01:22:53;101167.00;;;0.62;58.23
51926;BME280;37952;51.938;15.480;2023-03-01T01:25:56;101166.65;;;0.59;58.15
51926;BME280;37952;51.938;15.480;2023-03-01T01:29:01;101169.23;;;0.59;58.12
51926;BME280;37952;51.938;15.480;2023-03-01T01:32:09;101161.77;;;0.57;58.08
51926;BME280;37952;51.938;15.480;2023-03-01T01:35:12;101158.31;;;0.58;58.02
51926;BME280;37952;51.938;15.480;2023-03-01T01:42:22;101150.30;;;0.52;57.90
51926;BME280;37952;51.938;15.480;2023-03-01T01:45:38;101150.79;;;0.42;57.95
51926;BME280;37952;51.938;15.480;2023-03-01T01:48:43;101150.40;;;0.32;58.05
51926;BME280;37952;51.938;15.480;2023-03-01T01:51:48;101141.38;;;0.28;58.28
51926;BME280;37952;51.938;15.480;2023-03-01T01:55:17;101142.23;;;0.28;58.30
51926;BME280;37952;51.938;15.480;2023-03-01T01:58:26;101136.16;;;0.27;58.27
51926;BME280;37952;51.938;15.480;2023-03-01T02:01:30;101129.05;;;0.27;58.29
51926;BME280;37952;51.938;15.480;2023-03-01T02:04:33;101123.66;;;0.24;58.29
51926;BME280;37952;51.938;15.480;2023-03-01T02:07:38;101120.52;;;0.19;58.41
51926;BME280;37952;51.938;15.480;2023-03-01T02:10:42;101125.20;;;0.18;58.37
51926;BME280;37952;51.938;15.480;2023-03-01T02:13:46;101129.38;;;0.20;58.57
51926;BME280;37952;51.938;15.480;2023-03-01T02:16:49;101131.80;;;0.20;58.50
51926;BME280;37952;51.938;15.480;2023-03-01T02:23:23;101137.01;;;0.21;58.44
51926;BME280;37952;51.938;15.480;2023-03-01T02:26:36;101134.92;;;0.21;58.34
51926;BME280;37952;51.938;15.480;2023-03-01T02:29:43;101129.15;;;0.09;58.26
51926;BME280;37952;51.938;15.480;2023-03-01T02:33:24;101140.41;;;0.06;58.78
51926;BME280;37952;51.938;15.480;2023-03-01T02:36:31;101137.61;;;0.02;58.66
51926;BME280;37952;51.938;15.480;2023-03-01T02:39:39;101137.24;;;-0.03;58.76
51926;BME280;37952;51.938;15.480;2023-03-01T02:42:51;101139.79;;;-0.09;58.61
51926;BME280;37952;51.938;15.480;2023-03-01T02:46:03;101138.73;;;-0.13;59.01
51926;BME280;37952;51.938;15.480;2023-03-01T02:49:19;101141.81;;;-0.19;59.23
51926;BME280;37952;51.938;15.480;2023-03-01T02:53:01;101146.27;;;-0.27;59.25
51926;BME280;37952;51.938;15.480;2023-03-01T02:56:07;101145.33;;;-0.38;59.33
51926;BME280;37952;51.938;15.480;2023-03-01T02:59:21;101142.20;;;-0.39;59.44
51926;BME280;37952;51.938;15.480;2023-03-01T03:07:27;101136.14;;;-0.40;59.83
51926;BME280;37952;51.938;15.480;2023-03-01T03:10:33;101128.51;;;-0.41;59.84
51926;BME280;37952;51.938;15.480;2023-03-01T03:13:36;101131.83;;;-0.38;59.59
51926;BME280;37952;51.938;15.480;2023-03-01T03:22:53;101127.88;;;-0.35;59.84
51926;BME280;37952;51.938;15.480;2023-03-01T03:25:56;101124.75;;;-0.34;59.94
51926;BME280;37952;51.938;15.480;2023-03-01T03:29:04;101118.34;;;-0.33;60.07
51926;BME280;37952;51.938;15.480;2023-03-01T03:36:57;101107.58;;;-0.37;60.24
51926;BME280;37952;51.938;15.480;2023-03-01T03:40:02;101106.73;;;-0.35;60.26
51926;BME280;37952;51.938;15.480;2023-03-01T03:47:54;101098.58;;;-0.35;60.20
51926;BME280;37952;51.938;15.480;2023-03-01T03:50:57;101099.44;;;-0.36;60.02
51926;BME280;37952;51.938;15.480;2023-03-01T03:54:00;101095.45;;;-0.37;60.00
51926;BME280;37952;51.938;15.480;2023-03-01T03:57:03;101096.48;;;-0.38;59.74
51926;BME280;37952;51.938;15.480;2023-03-01T04:04:55;101099.91;;;-0.45;60.12
51926;BME280;37952;51.938;15.480;2023-03-01T04:08:02;101096.63;;;-0.43;60.24
51926;BME280;37952;51.938;15.480;2023-03-01T04:11:05;101097.86;;;-0.39;60.31
51926;BME280;37952;51.938;15.480;2023-03-01T04:14:27;101097.88;;;-0.38;60.20
51926;BME280;37952;51.938;15.480;2023-03-01T04:17:36;101095.28;;;-0.34;60.36
51926;BME280;37952;51.938;15.480;2023-03-01T04:20:39;101095.27;;;-0.34;60.16
51926;BME280;37952;51.938;15.480;2023-03-01T04:23:42;101087.33;;;-0.34;60.17
51926;BME280;37952;51.938;15.480;2023-03-01T04:26:45;101079.02;;;-0.33;60.35
51926;BME280;37952;51.938;15.480;2023-03-01T04:29:49;101076.62;;;-0.29;60.40
51926;BME280;37952;51.938;15.480;2023-03-01T04:32:52;101071.44;;;-0.26;60.27
51926;BME280;37952;51.938;15.480;2023-03-01T04:35:55;101076.33;;;-0.15;60.16
51926;BME280;37952;51.938;15.480;2023-03-01T04:39:00;101075.30;;;-0.15;59.92
51926;BME280;37952;51.938;15.480;2023-03-01T04:42:41;101072.50;;;-0.19;59.97
51926;BME280;37952;51.938;15.480;2023-03-01T04:45:44;101067.64;;;-0.21;60.10
51926;BME280;37952;51.938;15.480;2023-03-01T04:48:48;101068.67;;;-0.25;59.99
51926;BME280;37952;51.938;15.480;2023-03-01T04:56:47;101072.26;;;-0.31;60.27
51926;BME280;37952;51.938;15.480;2023-03-01T04:59:50;101071.92;;;-0.30;60.38
51926;BME280;37952;51.938;15.480;2023-03-01T05:02:59;101068.29;;;-0.30;60.43
51926;BME280;37952;51.938;15.480;2023-03-01T05:06:02;101069.52;;;-0.29;60.21
51926;BME280;37952;51.938;15.480;2023-03-01T05:09:05;101072.61;;;-0.31;60.28
51926;BME280;37952;51.938;15.480;2023-03-01T05:12:08;101071.91;;;-0.32;60.28
51926;BME280;37952;51.938;15.480;2023-03-01T05:15:38;101073.48;;;-0.31;60.31
51926;BME280;37952;51.938;15.480;2023-03-01T05:18:41;101072.11;;;-0.30;60.30
51926;BME280;37952;51.938;15.480;2023-03-01T05:21:45;101067.77;;;-0.28;60.36
51926;BME280;37952;51.938;15.480;2023-03-01T05:25:07;101061.73;;;-0.24;60.64
51926;BME280;37952;51.938;15.480;2023-03-01T05:28:25;101061.73;;;-0.25;60.21
51926;BME280;37952;51.938;15.480;2023-03-01T05:31:28;101067.08;;;-0.29;60.38
51926;BME280;37952;51.938;15.480;2023-03-01T05:34:35;101063.43;;;-0.32;60.57
51926;BME280;37952;51.938;15.480;2023-03-01T05:38:06;101060.65;;;-0.33;60.35
51926;BME280;37952;51.938;15.480;2023-03-01T05:41:14;101056.63;;;-0.41;60.51
51926;BME280;37952;51.938;15.480;2023-03-01T05:49:15;101061.17;;;-0.31;60.62
51926;BME280;37952;51.938;15.480;2023-03-01T05:52:18;101062.23;;;-0.29;60.62
51926;BME280;37952;51.938;15.480;2023-03-01T05:55:47;101060.99;;;-0.34;60.56
51926;BME280;37952;51.938;15.480;2023-03-01T05:58:50;101056.99;;;-0.36;60.90
51926;BME280;37952;51.938;15.480;2023-03-01T06:01:53;101051.11;;;-0.34;60.76
51926;BME280;37952;51.938;15.480;2023-03-01T06:09:21;101052.89;;;-0.29;60.79
51926;BME280;37952;51.938;15.480;2023-03-01T06:17:28;101056.15;;;-0.32;60.81
51926;BME280;37952;51.938;15.480;2023-03-01T06:20:31;101057.71;;;-0.31;60.91
51926;BME280;37952;51.938;15.480;2023-03-01T06:23:34;101058.75;;;-0.32;60.69
51926;BME280;37952;51.938;15.480;2023-03-01T06:31:32;101070.58;;;-0.26;61.20
51926;BME280;37952;51.938;15.480;2023-03-01T06:34:35;101075.95;;;-0.23;61.01
51926;BME280;37952;51.938;15.480;2023-03-01T06:37:39;101074.91;;;-0.22;60.94
51926;BME280;37952;51.938;15.480;2023-03-01T06:40:42;101074.77;;;-0.17;60.95
51926;BME280;37952;51.938;15.480;2023-03-01T06:43:45;101079.63;;;-0.16;61.22
51926;BME280;37952;51.938;15.480;2023-03-01T06:46:48;101083.25;;;-0.18;61.02
51926;BME280;37952;51.938;15.480;2023-03-01T06:50:03;101083.95;;;-0.18;61.10
51926;BME280;37952;51.938;15.480;2023-03-01T06:53:06;101090.71;;;-0.17;61.18
51926;BME280;37952;51.938;15.480;2023-03-01T06:56:09;101086.56;;;-0.16;61.16
51926;BME280;37952;51.938;15.480;2023-03-01T06:59:13;101090.56;;;-0.14;61.21
51926;BME280;37952;51.938;15.480;2023-03-01T07:02:16;101090.73;;;-0.11;61.26
51926;BME280;37952;51.938;15.480;2023-03-01T07:05:19;101094.55;;;-0.11;61.28
51926;BME280;37952;51.938;15.480;2023-03-01T07:08:22;101095.60;;;-0.10;61.50
51926;BME280;37952;51.938;15.480;2023-03-01T07:11:25;101096.48;;;-0.10;61.61
51926;BME280;37952;51.938;15.480;2023-03-01T07:14:28;101098.02;;;-0.10;61.34
51926;BME280;37952;51.938;15.480;2023-03-01T07:17:31;101094.23;;;-0.08;61.48
51926;BME280;37952;51.938;15.480;2023-03-01T07:20:34;101095.80;;;-0.06;61.51
51926;BME280;37952;51.938;15.480;2023-03-01T07:23:37;101092.00;;;-0.03;61.63
51926;BME280;37952;51.938;15.480;2023-03-01T07:26:40;101091.84;;;0.00;61.63
51926;BME280;37952;51.938;15.480;2023-03-01T07:33:36;101079.17;;;-0.02;61.69
51926;BME280;37952;51.938;15.480;2023-03-01T07:36:39;101075.71;;;-0.01;61.75
51926;BME280;37952;51.938;15.480;2023-03-01T07:39:45;101072.26;;;0.01;61.69
51926;BME280;37952;51.938;15.480;2023-03-01T07:42:47;101076.60;;;0.03;61.72
51926;BME280;37952;51.938;15.480;2023-03-01T07:45:50;101077.48;;;0.06;61.71
51926;BME280;37952;51.938;15.480;2023-03-01T07:48:54;101079.77;;;0.12;61.94
51926;BME280;37952;51.938;15.480;2023-03-01T07:51:57;101084.97;;;0.17;61.75
51926;BME280;37952;51.938;15.480;2023-03-01T07:55:00;101087.76;;;0.21;61.86
51926;BME280;37952;51.938;15.480;2023-03-01T08:01:57;101093.71;;;0.36;61.95
51926;BME280;37952;51.938;15.480;2023-03-01T08:05:00;101083.30;;;0.39;61.72
51926;BME280;37952;51.938;15.480;2023-03-01T08:12:57;101080.72;;;0.44;61.81
51926;BME280;37952;51.938;15.480;2023-03-01T08:16:01;101080.56;;;0.48;61.75
51926;BME280;37952;51.938;15.480;2023-03-01T08:19:09;101077.09;;;0.51;61.65
51926;BME280;37952;51.938;15.480;2023-03-01T08:22:13;101073.81;;;0.56;61.77
51926;BME280;37952;51.938;15.480;2023-03-01T08:25:16;101070.52;;;0.59;61.84
51926;BME280;37952;51.938;15.480;2023-03-01T08:28:19;101064.45;;;0.62;61.66
51926;BME280;37952;51.938;15.480;2023-03-01T08:31:53;101056.65;;;0.67;61.63
51926;BME280;37952;51.938;15.480;2023-03-01T08:34:56;101049.36;;;0.69;61.58
51926;BME280;37952;51.938;15.480;2023-03-01T08:37:59;101045.20;;;0.72;61.61
51926;BME280;37952;51.938;15.480;2023-03-01T08:41:03;101043.13;;;0.75;61.72
51926;BME280;37952;51.938;15.480;2023-03-01T08:44:06;101049.20;;;0.79;61.46
51926;BME280;37952;51.938;15.480;2023-03-01T08:47:09;101056.15;;;0.84;61.54
51926;BME280;37952;51.938;15.480;2023-03-01T08:50:12;101050.07;;;0.90;61.54
51926;BME280;37952;51.938;15.480;2023-03-01T08:53:15;101047.81;;;0.95;61.57
51926;BME280;37952;51.938;15.480;2023-03-01T08:56:18;101054.23;;;1.00;61.34
51926;BME280;37952;51.938;15.480;2023-03-01T08:59:22;101054.59;;;1.05;61.25
51926;BME280;37952;51.938;15.480;2023-03-01T09:02:24;101058.23;;;1.10;61.28
51926;BME280;37952;51.938;15.480;2023-03-01T09:05:27;101059.98;;;1.16;61.34
51926;BME280;37952;51.938;15.480;2023-03-01T09:18:21;101063.77;;;1.30;61.22
51926;BME280;37952;51.938;15.480;2023-03-01T09:21:24;101064.63;;;1.37;61.04
51926;BME280;37952;51.938;15.480;2023-03-01T09:24:41;101061.84;;;1.44;60.96
51926;BME280;37952;51.938;15.480;2023-03-01T09:27:44;101063.39;;;1.52;61.01
51926;BME280;37952;51.938;15.480;2023-03-01T09:30:47;101065.64;;;1.57;60.60
51926;BME280;37952;51.938;15.480;2023-03-01T09:38:45;101065.63;;;1.62;60.60
51926;BME280;37952;51.938;15.480;2023-03-01T09:42:02;101065.61;;;1.67;60.49
51926;BME280;37952;51.938;15.480;2023-03-01T09:45:25;101063.35;;;1.70;60.48
51926;BME280;37952;51.938;15.480;2023-03-01T09:48:41;101060.38;;;1.75;60.60
51926;BME280;37952;51.938;15.480;2023-03-01T09:52:23;101056.53;;;1.81;60.62
51926;BME280;37952;51.938;15.480;2023-03-01T09:55:33;101046.44;;;1.87;60.45
51926;BME280;37952;51.938;15.480;2023-03-01T10:02:15;101044.65;;;1.97;60.42
51926;BME280;37952;51.938;15.480;2023-03-01T10:08:58;101050.86;;;2.10;60.23
51926;BME280;37952;51.938;15.480;2023-03-01T10:12:12;101043.70;;;2.17;60.13
51926;BME280;37952;51.938;15.480;2023-03-01T10:20:26;101041.88;;;2.30;59.98
51926;BME280;37952;51.938;15.480;2023-03-01T10:23:32;101039.59;;;2.37;59.41
51926;BME280;37952;51.938;15.480;2023-03-01T10:29:49;101023.54;;;2.43;59.31
51926;BME280;37952;51.938;15.480;2023-03-01T10:38:02;101012.66;;;2.56;59.29
51926;BME280;37952;51.938;15.480;2023-03-01T10:41:06;101011.04;;;2.63;58.44
51926;BME280;37952;51.938;15.480;2023-03-01T10:44:35;101011.00;;;2.69;58.65
51926;BME280;37952;51.938;15.480;2023-03-01T10:47:38;101009.72;;;2.76;58.74
51926;BME280;37952;51.938;15.480;2023-03-01T10:56:55;101002.58;;;3.00;58.38
51926;BME280;37952;51.938;15.480;2023-03-01T11:03:36;100996.13;;;3.17;57.98
51926;BME280;37952;51.938;15.480;2023-03-01T11:06:41;100996.03;;;3.26;57.72
51926;BME280;37952;51.938;15.480;2023-03-01T11:09:44;100991.06;;;3.34;57.61
51926;BME280;37952;51.938;15.480;2023-03-01T11:17:43;100982.81;;;3.56;56.62
51926;BME280;37952;51.938;15.480;2023-03-01T11:20:59;100980.23;;;3.66;56.45
51926;BME280;37952;51.938;15.480;2023-03-01T11:24:09;100979.62;;;3.75;56.10
51926;BME280;37952;51.938;15.480;2023-03-01T11:27:24;100980.54;;;3.85;56.18
51926;BME280;37952;51.938;15.480;2023-03-01T11:34:38;100982.15;;;4.08;55.37
51926;BME280;37952;51.938;15.480;2023-03-01T11:41:11;100980.53;;;4.24;54.87
51926;BME280;37952;51.938;15.480;2023-03-01T11:44:33;100984.02;;;4.36;54.90
51926;BME280;37952;51.938;15.480;2023-03-01T11:50:54;100984.13;;;4.64;54.69
51926;BME280;37952;51.938;15.480;2023-03-01T12:04:04;100960.72;;;5.14;52.29
51926;BME280;37952;51.938;15.480;2023-03-01T12:28:31;100942.63;;;5.96;50.95
51926;BME280;37952;51.938;15.480;2023-03-01T12:38:59;100927.19;;;6.43;50.86
51926;BME280;37952;51.938;15.480;2023-03-01T12:50:24;100915.26;;;6.87;49.93
51926;BME280;37952;51.938;15.480;2023-03-01T12:58:36;100908.59;;;7.00;49.46
51926;BME280;37952;51.938;15.480;2023-03-01T13:02:41;100899.38;;;7.17;49.50
51926;BME280;37952;51.938;15.480;2023-03-01T13:05:37;100889.25;;;7.33;49.51
51926;BME280;37952;51.938;15.480;2023-03-01T13:12:00;100884.39;;;7.74;49.09
51926;BME280;37952;51.938;15.480;2023-03-01T13:15:36;100876.66;;;7.91;48.70
51926;BME280;37952;51.938;15.480;2023-03-01T13:18:40;100864.71;;;8.03;47.49
51926;BME280;37952;51.938;15.480;2023-03-01T13:21:44;100870.45;;;8.26;47.92
51926;BME280;37952;51.938;15.480;2023-03-01T13:30:00;100865.15;;;8.59;47.79
51926;BME280;37952;51.938;15.480;2023-03-01T13:39:40;100851.39;;;9.11;47.31
51926;BME280;37952;51.938;15.480;2023-03-01T13:42:45;100852.59;;;9.26;47.16
51926;BME280;37952;51.938;15.480;2023-03-01T13:45:58;100844.98;;;9.36;47.06
51926;BME280;37952;51.938;15.480;2023-03-01T13:49:01;100843.77;;;9.45;46.35
51926;BME280;37952;51.938;15.480;2023-03-01T13:52:05;100838.51;;;9.54;46.00
51926;BME280;37952;51.938;15.480;2023-03-01T13:55:42;100837.48;;;9.58;45.53
51926;BME280;37952;51.938;15.480;2023-03-01T13:58:53;100832.20;;;9.58;46.01
51926;BME280;37952;51.938;15.480;2023-03-01T14:01:59;100824.16;;;9.52;45.45
51926;BME280;37952;51.938;15.480;2023-03-01T14:05:02;100823.89;;;9.50;45.42
51926;BME280;37952;51.938;15.480;2023-03-01T14:08:19;100825.63;;;9.55;44.84
51926;BME280;37952;51.938;15.480;2023-03-01T14:14:45;100816.95;;;9.56;44.72
51926;BME280;37952;51.938;15.480;2023-03-01T14:20:58;100815.80;;;9.72;44.22
51926;BME280;37952;51.938;15.480;2023-03-01T14:24:01;100816.13;;;9.77;45.12
51926;BME280;37952;51.938;15.480;2023-03-01T14:27:04;100812.49;;;9.89;44.66
51926;BME280;37952;51.938;15.480;2023-03-01T14:37:53;100796.10;;;10.15;43.02
51926;BME280;37952;51.938;15.480;2023-03-01T14:40:59;100790.36;;;10.13;43.39
51926;BME280;37952;51.938;15.480;2023-03-01T14:44:16;100793.93;;;10.16;43.57
51926;BME280;37952;51.938;15.480;2023-03-01T14:47:32;100793.30;;;10.18;43.33
51926;BME280;37952;51.938;15.480;2023-03-01T14:50:41;100795.88;;;10.20;42.19
51926;BME280;37952;51.938;15.480;2023-03-01T14:53:44;100795.04;;;10.19;42.76
51926;BME280;37952;51.938;15.480;2023-03-01T14:56:58;100792.87;;;10.21;43.49
51926;BME280;37952;51.938;15.480;2023-03-01T15:00:06;100792.58;;;10.27;43.47
51926;BME280;37952;51.938;15.480;2023-03-01T15:08:00;100789.34;;;10.16;41.47
51926;BME280;37952;51.938;15.480;2023-03-01T15:11:04;100795.23;;;10.19;42.50
51926;BME280;37952;51.938;15.480;2023-03-01T15:14:39;100785.58;;;10.18;41.67
51926;BME280;37952;51.938;15.480;2023-03-01T15:17:52;100781.25;;;10.12;40.33
51926;BME280;37952;51.938;15.480;2023-03-01T15:21:19;100779.86;;;10.12;41.65
51926;BME280;37952;51.938;15.480;2023-03-01T15:24:26;100782.57;;;10.14;41.90
51926;BME280;37952;51.938;15.480;2023-03-01T15:27:30;100780.88;;;10.17;41.57
51926;BME280;37952;51.938;15.480;2023-03-01T15:30:34;100781.10;;;10.16;41.74
51926;BME280;37952;51.938;15.480;2023-03-01T15:37:48;100781.92;;;10.09;41.85
51926;BME280;37952;51.938;15.480;2023-03-01T15:40:52;100780.71;;;10.08;41.89
51926;BME280;37952;51.938;15.480;2023-03-01T15:43:56;100781.21;;;10.08;41.96
51926;BME280;37952;51.938;15.480;2023-03-01T15:47:00;100780.77;;;10.03;41.71
51926;BME280;37952;51.938;15.480;2023-03-01T15:50:04;100779.10;;;9.96;41.97
51926;BME280;37952;51.938;15.480;2023-03-01T15:53:11;100778.29;;;9.90;41.77
51926;BME280;37952;51.938;15.480;2023-03-01T15:56:15;100775.36;;;9.71;41.40
51926;BME280;37952;51.938;15.480;2023-03-01T15:59:18;100780.41;;;9.59;41.92
51926;BME280;37952;51.938;15.480;2023-03-01T16:02:22;100775.54;;;9.48;41.90
51926;BME280;37952;51.938;15.480;2023-03-01T16:05:30;100775.42;;;9.38;41.78
51926;BME280;37952;51.938;15.480;2023-03-01T16:08:33;100772.40;;;9.21;41.83
51926;BME280;37952;51.938;15.480;2023-03-01T16:11:36;100770.00;;;9.00;41.90
51926;BME280;37952;51.938;15.480;2023-03-01T16:14:40;100771.36;;;8.77;41.72
51926;BME280;37952;51.938;15.480;2023-03-01T16:17:44;100769.48;;;8.56;41.90
51926;BME280;37952;51.938;15.480;2023-03-01T16:20:47;100769.63;;;8.36;41.91
51926;BME280;37952;51.938;15.480;2023-03-01T16:23:52;100765.03;;;8.17;41.88
51926;BME280;37952;51.938;15.480;2023-03-01T16:26:59;100774.13;;;8.01;42.12
51926;BME280;37952;51.938;15.480;2023-03-01T16:30:02;100775.19;;;7.86;42.19
51926;BME280;37952;51.938;15.480;2023-03-01T16:33:05;100781.55;;;7.68;42.43
51926;BME280;37952;51.938;15.480;2023-03-01T16:36:30;100785.42;;;7.50;42.63
51926;BME280;37952;51.938;15.480;2023-03-01T16:39:33;100786.48;;;7.39;42.72
51926;BME280;37952;51.938;15.480;2023-03-01T16:42:36;100791.84;;;7.30;42.93
51926;BME280;37952;51.938;15.480;2023-03-01T16:45:42;100786.02;;;7.19;42.85
51926;BME280;37952;51.938;15.480;2023-03-01T16:48:48;100783.91;;;7.08;42.84
51926;BME280;37952;51.938;15.480;2023-03-01T16:51:53;100784.55;;;6.98;42.97
51926;BME280;37952;51.938;15.480;2023-03-01T16:54:56;100782.89;;;6.88;42.99
51926;BME280;37952;51.938;15.480;2023-03-01T16:58:00;100782.64;;;6.78;43.14
51926;BME280;37952;51.938;15.480;2023-03-01T17:01:08;100784.09;;;6.70;43.09
51926;BME280;37952;51.938;15.480;2023-03-01T17:04:13;100786.91;;;6.63;43.40
51926;BME280;37952;51.938;15.480;2023-03-01T17:07:16;100789.56;;;6.56;43.42
51926;BME280;37952;51.938;15.480;2023-03-01T17:10:19;100793.42;;;6.49;43.27
51926;BME280;37952;51.938;15.480;2023-03-01T17:18:10;100804.46;;;6.28;43.64
51926;BME280;37952;51.938;15.480;2023-03-01T17:21:14;100809.29;;;6.18;43.83
51926;BME280;37952;51.938;15.480;2023-03-01T17:24:17;100806.21;;;6.08;43.94
51926;BME280;37952;51.938;15.480;2023-03-01T17:27:21;100806.35;;;6.01;44.23
51926;BME280;37952;51.938;15.480;2023-03-01T17:30:27;100799.59;;;5.91;44.34
51926;BME280;37952;51.938;15.480;2023-03-01T17:33:30;100802.67;;;5.86;44.36
51926;BME280;37952;51.938;15.480;2023-03-01T17:36:33;100805.24;;;5.82;44.57
51926;BME280;37952;51.938;15.480;2023-03-01T17:39:45;100810.82;;;5.75;44.50
51926;BME280;37952;51.938;15.480;2023-03-01T17:42:48;100816.02;;;5.70;44.66
51926;BME280;37952;51.938;15.480;2023-03-01T17:45:51;100815.07;;;5.65;44.82
51926;BME280;37952;51.938;15.480;2023-03-01T17:48:56;100811.63;;;5.63;44.77
51926;BME280;37952;51.938;15.480;2023-03-01T17:51:59;100810.27;;;5.61;44.87
51926;BME280;37952;51.938;15.480;2023-03-01T18:04:45;100816.13;;;5.49;45.05
51926;BME280;37952;51.938;15.480;2023-03-01T18:07:51;100813.15;;;5.50;44.95
51926;BME280;37952;51.938;15.480;2023-03-01T18:10:58;100807.05;;;5.49;44.98
51926;BME280;37952;51.938;15.480;2023-03-01T18:14:01;100804.52;;;5.45;44.98
51926;BME280;37952;51.938;15.480;2023-03-01T18:17:04;100800.72;;;5.43;44.99
51926;BME280;37952;51.938;15.480;2023-03-01T18:20:13;100803.71;;;5.41;45.03
51926;BME280;37952;51.938;15.480;2023-03-01T18:23:23;100798.34;;;5.39;44.82
51926;BME280;37952;51.938;15.480;2023-03-01T18:26:26;100790.77;;;5.34;44.51
51926;BME280;37952;51.938;15.480;2023-03-01T18:29:31;100789.29;;;5.29;44.82
51926;BME280;37952;51.938;15.480;2023-03-01T18:32:34;100784.45;;;5.27;44.61
51926;BME280;37952;51.938;15.480;2023-03-01T18:35:38;100782.75;;;5.25;44.83
51926;BME280;37952;51.938;15.480;2023-03-01T18:38:41;100782.41;;;5.25;44.86
51926;BME280;37952;51.938;15.480;2023-03-01T18:41:44;100780.52;;;5.22;44.91
51926;BME280;37952;51.938;15.480;2023-03-01T18:44:47;100777.02;;;5.23;44.91
51926;BME280;37952;51.938;15.480;2023-03-01T18:47:50;100772.26;;;5.25;44.71
51926;BME280;37952;51.938;15.480;2023-03-01T18:51:22;100775.74;;;5.25;44.71
51926;BME280;37952;51.938;15.480;2023-03-01T18:54:25;100771.13;;;5.20;44.46
51926;BME280;37952;51.938;15.480;2023-03-01T18:57:28;100764.80;;;5.14;44.22
51926;BME280;37952;51.938;15.480;2023-03-01T19:10:15;100762.09;;;4.94;43.67
51926;BME280;37952;51.938;15.480;2023-03-01T19:13:20;100767.75;;;4.90;43.95
51926;BME280;37952;51.938;15.480;2023-03-01T19:16:25;100774.58;;;4.89;44.39
51926;BME280;37952;51.938;15.480;2023-03-01T19:19:30;100775.17;;;4.86;44.03
51926;BME280;37952;51.938;15.480;2023-03-01T19:27:31;100776.63;;;4.75;44.77
51926;BME280;37952;51.938;15.480;2023-03-01T19:30:34;100774.02;;;4.73;44.69
51926;BME280;37952;51.938;15.480;2023-03-01T19:33:37;100776.84;;;4.72;44.83
51926;BME280;37952;51.938;15.480;2023-03-01T19:36:42;100780.79;;;4.67;44.89
51926;BME280;37952;51.938;15.480;2023-03-01T19:39:46;100780.33;;;4.64;45.04
51926;BME280;37952;51.938;15.480;2023-03-01T19:42:50;100775.68;;;4.60;44.91
51926;BME280;37952;51.938;15.480;2023-03-01T19:45:53;100774.46;;;4.59;45.12
51926;BME280;37952;51.938;15.480;2023-03-01T19:48:57;100772.73;;;4.59;44.93
51926;BME280;37952;51.938;15.480;2023-03-01T19:52:03;100771.09;;;4.53;45.01
51926;BME280;37952;51.938;15.480;2023-03-01T19:55:35;100776.33;;;4.53;45.17
51926;BME280;37952;51.938;15.480;2023-03-01T19:58:38;100777.80;;;4.49;44.73
51926;BME280;37952;51.938;15.480;2023-03-01T20:01:41;100778.45;;;4.43;44.98
51926;BME280;37952;51.938;15.480;2023-03-01T20:04:44;100780.75;;;4.41;45.11
51926;BME280;37952;51.938;15.480;2023-03-01T20:11:42;100776.20;;;4.42;44.93
51926;BME280;37952;51.938;15.480;2023-03-01T20:14:45;100782.29;;;4.43;44.72
51926;BME280;37952;51.938;15.480;2023-03-01T20:17:50;100788.84;;;4.39;44.69
51926;BME280;37952;51.938;15.480;2023-03-01T20:20:53;100795.23;;;4.32;44.68
51926;BME280;37952;51.938;15.480;2023-03-01T20:24:00;100796.07;;;4.24;44.90
51926;BME280;37952;51.938;15.480;2023-03-01T20:27:03;100799.23;;;4.23;44.97
51926;BME280;37952;51.938;15.480;2023-03-01T20:30:06;100798.19;;;4.23;44.84
51926;BME280;37952;51.938;15.480;2023-03-01T20:33:10;100797.33;;;4.22;44.80
51926;BME280;37952;51.938;15.480;2023-03-01T20:36:14;100794.01;;;4.22;44.92